Terminal Aerodrome Forecast
Issued by NWS

Home | Current Version | Previous Version | Text Only | Print | Product List | Glossary On
Versions: 1 2 3 4 5 6 7 8 9 10 11 12 13 14
000
FTUS46 KLOX 301900 AAA
TAFWJF
TAF AMD
KWJF 301956Z 3020/3118 26025G35KT P6SM SKC
     FM310200 26018G28KT P6SM SKC
     FM310600 25014KT P6SM SKC=

USA.gov is the U.S. government's official web portal to all federal, state and local government web resources and services.